Mckinley Sea — WDE5024 — position and weather

sailwx.info

Track history (hours):
 
Tides and Currents Weather Stations Pressure Air Temp Water Temp Dewpoint Dewpoint Depression Visibility Wind Speed Wind Dir Waves Ship Positions

Mckinley Sea

Owner: Kirby Offshore Marine, LLC, Staten Island, NY. More information available from US FCC via Universal Licensing System and Coast Guard Vessel Documentation Center.

Last reported at 2016-Dec-07 13:33 UTC. Time now 2016-Dec-07 16:22 UTC.
Position N 38°58' W 075°12'.

Length 41 m; draft 6 m.

Type: . MMSI: 367360980.

Date/timePositionNaut miles runAvg speedWind from/ knotsBaromVisibWave heightAir tempDewpointWater temp
2016-Dec-07 13:33N 38°58' W 075°12'1 0.1
2016-Dec-07 05:12N 38°58' W 075°11'4 5.5
2016-Dec-07 04:30N 38°56' W 075°06'5 5.5
2016-Dec-07 03:33N 39°01' W 075°09'6 6.1
2016-Dec-07 02:34N 39°06' W 075°12'7 7.0
2016-Dec-07 01:34N 39°12' W 075°17'8 8.1
2016-Dec-07 00:34N 39°19' W 075°24'8 8.0
2016-Dec-06 23:33N 39°25' W 075°30'7 6.6
2016-Dec-06 22:34N 39°31' W 075°33'5 4.6
2016-Dec-06 21:33N 39°35' W 075°36'0 0.0
2016-Dec-06 20:33N 39°35' W 075°36'0 0.0
2016-Dec-06 18:33N 39°35' W 075°36'0 0.0
2016-Dec-06 17:27N 39°35' W 075°36'0 0.0
2016-Dec-06 16:33N 39°35' W 075°36'0 0.0
2016-Dec-06 15:33N 39°35' W 075°36'0 0.0
2016-Dec-06 14:33N 39°35' W 075°36'0 0.0
2016-Dec-06 13:33N 39°35' W 075°36'0 0.0
2016-Dec-06 12:33N 39°35' W 075°36'0 0.0
2016-Dec-06 11:33N 39°35' W 075°36'0 0.0
2016-Dec-06 10:33N 39°35' W 075°36'0 0.0
2016-Dec-06 09:33N 39°35' W 075°36'0 0.0
2016-Dec-06 08:33N 39°35' W 075°36'0 0.0
2016-Dec-06 07:33N 39°35' W 075°36'0 0.0
2016-Dec-06 06:33N 39°35' W 075°36'0 0.0
2016-Dec-06 05:33N 39°35' W 075°36'0 0.0
2016-Dec-06 04:33N 39°35' W 075°36'0 0.0
2016-Dec-06 03:33N 39°35' W 075°36'0 0.0
2016-Dec-06 02:33N 39°35' W 075°36'0 0.0
2016-Dec-06 01:33N 39°35' W 075°36'0 0.0
2016-Dec-06 00:33N 39°35' W 075°36'0 0.0
2016-Dec-05 23:33N 39°35' W 075°36'0 0.0
2016-Dec-05 22:33N 39°35' W 075°36'0 0.0
2016-Dec-05 21:33N 39°35' W 075°36'0 0.0
2016-Dec-05 20:33N 39°35' W 075°36'0 0.0
2016-Dec-05 19:33N 39°35' W 075°36'0 0.0
2016-Dec-05 18:33N 39°35' W 075°36'2 2.4
2016-Dec-05 17:33N 39°34' W 075°33'1 0.6
2016-Dec-05 16:31N 39°33' W 075°33'0 0.1
2016-Dec-05 15:31N 39°33' W 075°33'0 0.0
2016-Dec-05 14:31N 39°33' W 075°33'0 0.0
2016-Dec-05 13:31N 39°33' W 075°33'0 0.0
2016-Dec-05 12:31N 39°33' W 075°33'0 0.0
2016-Dec-05 11:31N 39°33' W 075°33'0 0.1
2016-Dec-05 10:31N 39°33' W 075°33'0 0.1
2016-Dec-05 09:31N 39°33' W 075°33'0 0.0
2016-Dec-05 08:32N 39°33' W 075°33'0 0.0
2016-Dec-05 07:31N 39°33' W 075°33'0 0.0
2016-Dec-05 06:31N 39°33' W 075°33'0 0.0
2016-Dec-05 05:31N 39°33' W 075°33'0 0.5
2016-Dec-05 04:33N 39°33' W 075°33'8 7.6
2016-Dec-05 03:33N 39°25' W 075°31'9 8.7
2016-Dec-05 02:33N 39°19' W 075°24'8 8.3
2016-Dec-05 01:33N 39°12' W 075°17'52 5.6
2016-Dec-04 16:14N 39°25' W 074°12'6 9.2
2016-Dec-04 15:33N 39°30' W 074°08'9 9.2
2016-Dec-04 14:33N 39°39' W 074°03'9 9.1
2016-Dec-04 13:33N 39°47' W 073°58'38 9.2
2016-Dec-04 09:23N 40°25' W 073°53'8 8.6
2016-Dec-04 08:31N 40°31' W 073°59'9 9.7
2016-Dec-04 07:33N 40°39' W 074°05'6 6.3
2016-Dec-04 06:33N 40°36' W 074°12'0 0.0
2016-Dec-04 05:33N 40°36' W 074°12'3 2.8
2016-Dec-04 04:32N 40°39' W 074°10'0 0.0
2016-Dec-04 03:32N 40°39' W 074°10'0 0.0
2016-Dec-04 02:29N 40°39' W 074°10'0 0.0
2016-Dec-04 01:32N 40°39' W 074°10'0 0.0
2016-Dec-04 00:33N 40°39' W 074°10'0 0.0
2016-Dec-03 23:33N 40°39' W 074°10'0 0.0
2016-Dec-03 22:33N 40°39' W 074°10'0 0.0
2016-Dec-03 21:33N 40°39' W 074°10'0 0.0
2016-Dec-03 20:33N 40°39' W 074°10'0 0.0
2016-Dec-03 19:33N 40°39' W 074°10'0 0.0
2016-Dec-03 18:33N 40°39' W 074°10'0 0.0
2016-Dec-03 17:33N 40°39' W 074°10'0 0.0
2016-Dec-03 16:33N 40°39' W 074°10'2 2.5
2016-Dec-03 15:33N 40°39' W 074°07'0 0.0
2016-Dec-03 14:33N 40°39' W 074°07'0 0.0
2016-Dec-03 13:33N 40°39' W 074°07'0 0.0
2016-Dec-03 12:33N 40°39' W 074°07'5 5.0
2016-Dec-03 11:33N 40°36' W 074°12'0 0.4
2016-Dec-03 10:33N 40°36' W 074°12'3 3.0
2016-Dec-03 09:33N 40°39' W 074°10'6 6.0
2016-Dec-03 08:33N 40°37' W 074°03'6 6.1
2016-Dec-03 07:33N 40°31' W 074°00'40 7.4
2016-Dec-03 02:10N 39°52' W 073°57'5 8.4
2016-Dec-03 01:33N 39°46' W 073°58'8 8.4
2016-Dec-03 00:33N 39°39' W 074°02'8 8.5
2016-Dec-02 23:33N 39°31' W 074°07'57 6.3
2016-Dec-02 14:33N 38°60' W 075°08'7 6.8
2016-Dec-02 13:33N 39°06' W 075°12'7 7.0
2016-Dec-02 12:33N 39°12' W 075°17'8 8.2
2016-Dec-02 11:33N 39°18' W 075°23'10 9.9
2016-Dec-02 10:33N 39°26' W 075°32'9 8.5
2016-Dec-02 09:33N 39°34' W 075°34'2 1.8
2016-Dec-02 08:33N 39°35' W 075°35'0 0.0
2016-Dec-02 07:33N 39°35' W 075°35'0 0.0
2016-Dec-02 06:33N 39°35' W 075°35'0 0.0
2016-Dec-02 05:32N 39°35' W 075°36'0 0.0
2016-Dec-02 04:32N 39°35' W 075°36'0 0.0
2016-Dec-02 03:32N 39°35' W 075°36'0 0.0
2016-Dec-02 02:32N 39°35' W 075°36'0 0.0
2016-Dec-02 01:32N 39°35' W 075°36'0 0.0
2016-Dec-02 00:32N 39°35' W 075°36'0 0.0
2016-Dec-01 23:32N 39°35' W 075°36'0 0.0
2016-Dec-01 22:32N 39°35' W 075°36'0 0.0
2016-Dec-01 21:32N 39°35' W 075°36'0 0.0
2016-Dec-01 20:32N 39°35' W 075°36'0 0.0
2016-Dec-01 19:32N 39°35' W 075°36'0 0.0
2016-Dec-01 18:32N 39°35' W 075°36'0 0.0
2016-Dec-01 17:32N 39°35' W 075°36'0 0.0
2016-Dec-01 16:32N 39°35' W 075°36'0 0.0
2016-Dec-01 15:32N 39°35' W 075°36'0 0.0
2016-Dec-01 14:32N 39°35' W 075°36'0 0.0
2016-Dec-01 13:32N 39°35' W 075°36'0 0.0
2016-Dec-01 12:32N 39°35' W 075°36'0 0.0
2016-Dec-01 11:32N 39°35' W 075°36'0 0.0
2016-Dec-01 10:32N 39°35' W 075°36'0 0.0
2016-Dec-01 09:32N 39°35' W 075°36'0 0.0
2016-Dec-01 08:33N 39°35' W 075°35'0 0.0
2016-Dec-01 07:33N 39°35' W 075°35'2 1.5
2016-Dec-01 06:33N 39°35' W 075°34'6 6.3
2016-Dec-01 05:33N 39°41' W 075°31'7 7.3
2016-Dec-01 04:33N 39°48' W 075°27'7 7.1
2016-Dec-01 03:33N 39°51' W 075°18'3 2.6
2016-Dec-01 02:33N 39°51' W 075°15'0 0.0
2016-Dec-01 01:32N 39°51' W 075°15'0 0.0
2016-Dec-01 00:33N 39°51' W 075°15'0 0.0
2016-Nov-30 23:32N 39°51' W 075°15'0 0.0
2016-Nov-30 22:32N 39°51' W 075°15'0 0.0
2016-Nov-30 21:33N 39°51' W 075°15'0 0.0
2016-Nov-30 20:32N 39°51' W 075°15'0 0.0
2016-Nov-30 19:32N 39°51' W 075°15'0 0.0
2016-Nov-30 18:32N 39°51' W 075°15'0 0.0
2016-Nov-30 17:32N 39°51' W 075°15'0 0.0
2016-Nov-30 16:29N 39°51' W 075°15'0 0.0
2016-Nov-30 15:32N 39°51' W 075°15'0 0.0
2016-Nov-30 14:32N 39°51' W 075°15'0 0.0
2016-Nov-30 13:32N 39°51' W 075°15'0 0.0
2016-Nov-30 12:32N 39°51' W 075°15'0 0.0
2016-Nov-30 11:32N 39°51' W 075°15'0 0.0
2016-Nov-30 10:32N 39°51' W 075°15'0 0.0
2016-Nov-30 09:32N 39°51' W 075°15'0 0.0
2016-Nov-30 06:26N 39°51' W 075°15'0 0.0
2016-Nov-30 05:32N 39°51' W 075°15'0 0.0
2016-Nov-30 04:32N 39°51' W 075°15'0 0.0
2016-Nov-30 03:32N 39°51' W 075°15'0 0.0
2016-Nov-30 02:32N 39°51' W 075°15'0 0.0
2016-Nov-30 01:32N 39°51' W 075°15'0 0.0
2016-Nov-30 00:23N 39°51' W 075°15'0 0.0
2016-Nov-29 23:32N 39°51' W 075°15'0 0.0
2016-Nov-29 22:32N 39°51' W 075°15'0 0.0
2016-Nov-29 21:32N 39°51' W 075°15'0 0.0
2016-Nov-29 20:33N 39°51' W 075°15'3 3.1
2016-Nov-29 19:33N 39°51' W 075°19'7 6.5
2016-Nov-29 18:33N 39°48' W 075°26'7 7.4
2016-Nov-29 17:33N 39°41' W 075°31'7 6.9
2016-Nov-29 16:33N 39°34' W 075°33'2 2.0
2016-Nov-29 15:32N 39°35' W 075°36'0 0.0
2016-Nov-29 14:32N 39°35' W 075°36'0 0.0
2016-Nov-29 13:31N 39°35' W 075°36'0 0.0
2016-Nov-29 12:32N 39°35' W 075°36'0 0.0
2016-Nov-29 11:31N 39°35' W 075°36'0 0.0
2016-Nov-29 10:31N 39°35' W 075°36'0 0.0
2016-Nov-29 09:32N 39°35' W 075°36'0 0.0
2016-Nov-29 08:32N 39°35' W 075°36'0 0.0
2016-Nov-29 07:32N 39°35' W 075°36'0 0.0
2016-Nov-29 06:32N 39°35' W 075°36'0 0.0
2016-Nov-29 05:31N 39°35' W 075°36'0 0.0
2016-Nov-29 04:31N 39°35' W 075°36'0 0.0
2016-Nov-29 03:31N 39°35' W 075°36'0 0.0
2016-Nov-29 02:31N 39°35' W 075°36'0 0.0
2016-Nov-29 01:31N 39°35' W 075°36'0 0.0
2016-Nov-29 00:31N 39°35' W 075°36'0 0.0
2016-Nov-28 23:31N 39°35' W 075°36'0 0.0
2016-Nov-28 22:31N 39°35' W 075°36'0 0.0
2016-Nov-28 21:31N 39°35' W 075°36'0 0.0
2016-Nov-28 20:31N 39°35' W 075°36'0 0.0
2016-Nov-28 19:31N 39°35' W 075°36'0 0.0
2016-Nov-28 18:31N 39°35' W 075°36'0 0.0
2016-Nov-28 17:31N 39°35' W 075°36'0 0.0
2016-Nov-28 16:31N 39°35' W 075°36'0 0.0
2016-Nov-28 15:31N 39°35' W 075°36'0 0.0
2016-Nov-28 14:31N 39°35' W 075°36'0 0.0
2016-Nov-28 13:31N 39°35' W 075°36'0 0.0
2016-Nov-28 12:31N 39°35' W 075°36'0 0.0
2016-Nov-28 11:31N 39°35' W 075°36'0 0.0
2016-Nov-28 10:31N 39°35' W 075°36'0 0.0
2016-Nov-28 09:31N 39°35' W 075°36'0 0.0
2016-Nov-28 08:33N 39°35' W 075°36'0 0.0
2016-Nov-28 07:33N 39°35' W 075°36'5 5.1
2016-Nov-28 06:33N 39°31' W 075°33'0 0.2
2016-Nov-28 05:31N 39°30' W 075°33'0 0.1
2016-Nov-28 04:31N 39°30' W 075°33'0 0.1
2016-Nov-28 03:31N 39°30' W 075°33'0 0.0
2016-Nov-28 02:31N 39°30' W 075°33'0 0.0
2016-Nov-28 01:31N 39°30' W 075°33'0 0.0
2016-Nov-28 00:31N 39°30' W 075°33'0 0.1
2016-Nov-27 23:28N 39°30' W 075°33'0 0.1
2016-Nov-27 22:31N 39°30' W 075°33'0 0.1
2016-Nov-27 21:31N 39°30' W 075°33'0 0.0
2016-Nov-27 20:31N 39°30' W 075°33'0 0.0
2016-Nov-27 19:31N 39°30' W 075°33'0 0.0
2016-Nov-27 18:31N 39°30' W 075°33'0 0.0
2016-Nov-27 17:31N 39°30' W 075°33'0 0.1
2016-Nov-27 16:31N 39°30' W 075°33'5 5.1
2016-Nov-27 15:33N 39°25' W 075°31'10 9.7
2016-Nov-27 14:33N 39°18' W 075°23'10 9.7
2016-Nov-27 13:33N 39°10' W 075°16'  
Track history (hours):
 
Tides and Currents Weather Stations Pressure Air Temp Water Temp Dewpoint Dewpoint Depression Visibility Wind Speed Wind Dir Waves Ship Positions

Mckinley Sea

Owner: Kirby Offshore Marine, LLC, Staten Island, NY. More information available from US FCC via Universal Licensing System and Coast Guard Vessel Documentation Center.

Last reported at 2016-Dec-07 13:33 UTC. Time now 2016-Dec-07 16:22 UTC.
Position N 38°58' W 075°12'.

Length 41 m; draft 6 m.

Type: . MMSI: 367360980.

Date/timePositionNaut miles runAvg speedWind from/ knotsBaromVisibWave heightAir tempDewpointWater temp
2016-Dec-07 13:33N 38°58' W 075°12'1 0.1
2016-Dec-07 05:12N 38°58' W 075°11'4 5.5
2016-Dec-07 04:30N 38°56' W 075°06'5 5.5
2016-Dec-07 03:33N 39°01' W 075°09'6 6.1
2016-Dec-07 02:34N 39°06' W 075°12'7 7.0
2016-Dec-07 01:34N 39°12' W 075°17'8 8.1
2016-Dec-07 00:34N 39°19' W 075°24'8 8.0
2016-Dec-06 23:33N 39°25' W 075°30'7 6.6
2016-Dec-06 22:34N 39°31' W 075°33'5 4.6
2016-Dec-06 21:33N 39°35' W 075°36'0 0.0
2016-Dec-06 20:33N 39°35' W 075°36'0 0.0
2016-Dec-06 18:33N 39°35' W 075°36'0 0.0
2016-Dec-06 17:27N 39°35' W 075°36'0 0.0
2016-Dec-06 16:33N 39°35' W 075°36'0 0.0
2016-Dec-06 15:33N 39°35' W 075°36'0 0.0
2016-Dec-06 14:33N 39°35' W 075°36'0 0.0
2016-Dec-06 13:33N 39°35' W 075°36'0 0.0
2016-Dec-06 12:33N 39°35' W 075°36'0 0.0
2016-Dec-06 11:33N 39°35' W 075°36'0 0.0
2016-Dec-06 10:33N 39°35' W 075°36'0 0.0
2016-Dec-06 09:33N 39°35' W 075°36'0 0.0
2016-Dec-06 08:33N 39°35' W 075°36'0 0.0
2016-Dec-06 07:33N 39°35' W 075°36'0 0.0
2016-Dec-06 06:33N 39°35' W 075°36'0 0.0
2016-Dec-06 05:33N 39°35' W 075°36'0 0.0
2016-Dec-06 04:33N 39°35' W 075°36'0 0.0
2016-Dec-06 03:33N 39°35' W 075°36'0 0.0
2016-Dec-06 02:33N 39°35' W 075°36'0 0.0
2016-Dec-06 01:33N 39°35' W 075°36'0 0.0
2016-Dec-06 00:33N 39°35' W 075°36'0 0.0
2016-Dec-05 23:33N 39°35' W 075°36'0 0.0
2016-Dec-05 22:33N 39°35' W 075°36'0 0.0
2016-Dec-05 21:33N 39°35' W 075°36'0 0.0
2016-Dec-05 20:33N 39°35' W 075°36'0 0.0
2016-Dec-05 19:33N 39°35' W 075°36'0 0.0
2016-Dec-05 18:33N 39°35' W 075°36'2 2.4
2016-Dec-05 17:33N 39°34' W 075°33'1 0.6
2016-Dec-05 16:31N 39°33' W 075°33'0 0.1
2016-Dec-05 15:31N 39°33' W 075°33'0 0.0
2016-Dec-05 14:31N 39°33' W 075°33'0 0.0
2016-Dec-05 13:31N 39°33' W 075°33'0 0.0
2016-Dec-05 12:31N 39°33' W 075°33'0 0.0
2016-Dec-05 11:31N 39°33' W 075°33'0 0.1
2016-Dec-05 10:31N 39°33' W 075°33'0 0.1
2016-Dec-05 09:31N 39°33' W 075°33'0 0.0
2016-Dec-05 08:32N 39°33' W 075°33'0 0.0
2016-Dec-05 07:31N 39°33' W 075°33'0 0.0
2016-Dec-05 06:31N 39°33' W 075°33'0 0.0
2016-Dec-05 05:31N 39°33' W 075°33'0 0.5
2016-Dec-05 04:33N 39°33' W 075°33'8 7.6
2016-Dec-05 03:33N 39°25' W 075°31'9 8.7
2016-Dec-05 02:33N 39°19' W 075°24'8 8.3
2016-Dec-05 01:33N 39°12' W 075°17'52 5.6
2016-Dec-04 16:14N 39°25' W 074°12'6 9.2
2016-Dec-04 15:33N 39°30' W 074°08'9 9.2
2016-Dec-04 14:33N 39°39' W 074°03'9 9.1
2016-Dec-04 13:33N 39°47' W 073°58'38 9.2
2016-Dec-04 09:23N 40°25' W 073°53'8 8.6
2016-Dec-04 08:31N 40°31' W 073°59'9 9.7
2016-Dec-04 07:33N 40°39' W 074°05'6 6.3
2016-Dec-04 06:33N 40°36' W 074°12'0 0.0
2016-Dec-04 05:33N 40°36' W 074°12'3 2.8
2016-Dec-04 04:32N 40°39' W 074°10'0 0.0
2016-Dec-04 03:32N 40°39' W 074°10'0 0.0
2016-Dec-04 02:29N 40°39' W 074°10'0 0.0
2016-Dec-04 01:32N 40°39' W 074°10'0 0.0
2016-Dec-04 00:33N 40°39' W 074°10'0 0.0
2016-Dec-03 23:33N 40°39' W 074°10'0 0.0
2016-Dec-03 22:33N 40°39' W 074°10'0 0.0
2016-Dec-03 21:33N 40°39' W 074°10'0 0.0
2016-Dec-03 20:33N 40°39' W 074°10'0 0.0
2016-Dec-03 19:33N 40°39' W 074°10'0 0.0
2016-Dec-03 18:33N 40°39' W 074°10'0 0.0
2016-Dec-03 17:33N 40°39' W 074°10'0 0.0
2016-Dec-03 16:33N 40°39' W 074°10'2 2.5
2016-Dec-03 15:33N 40°39' W 074°07'0 0.0
2016-Dec-03 14:33N 40°39' W 074°07'0 0.0
2016-Dec-03 13:33N 40°39' W 074°07'0 0.0
2016-Dec-03 12:33N 40°39' W 074°07'5 5.0
2016-Dec-03 11:33N 40°36' W 074°12'0 0.4
2016-Dec-03 10:33N 40°36' W 074°12'3 3.0
2016-Dec-03 09:33N 40°39' W 074°10'6 6.0
2016-Dec-03 08:33N 40°37' W 074°03'6 6.1
2016-Dec-03 07:33N 40°31' W 074°00'40 7.4
2016-Dec-03 02:10N 39°52' W 073°57'5 8.4
2016-Dec-03 01:33N 39°46' W 073°58'8 8.4
2016-Dec-03 00:33N 39°39' W 074°02'8 8.5
2016-Dec-02 23:33N 39°31' W 074°07'57 6.3
2016-Dec-02 14:33N 38°60' W 075°08'7 6.8
2016-Dec-02 13:33N 39°06' W 075°12'7 7.0
2016-Dec-02 12:33N 39°12' W 075°17'8 8.2
2016-Dec-02 11:33N 39°18' W 075°23'10 9.9
2016-Dec-02 10:33N 39°26' W 075°32'9 8.5
2016-Dec-02 09:33N 39°34' W 075°34'2 1.8
2016-Dec-02 08:33N 39°35' W 075°35'0 0.0
2016-Dec-02 07:33N 39°35' W 075°35'0 0.0
2016-Dec-02 06:33N 39°35' W 075°35'0 0.0
2016-Dec-02 05:32N 39°35' W 075°36'0 0.0
2016-Dec-02 04:32N 39°35' W 075°36'0 0.0
2016-Dec-02 03:32N 39°35' W 075°36'0 0.0
2016-Dec-02 02:32N 39°35' W 075°36'0 0.0
2016-Dec-02 01:32N 39°35' W 075°36'0 0.0
2016-Dec-02 00:32N 39°35' W 075°36'0 0.0
2016-Dec-01 23:32N 39°35' W 075°36'0 0.0
2016-Dec-01 22:32N 39°35' W 075°36'0 0.0
2016-Dec-01 21:32N 39°35' W 075°36'0 0.0
2016-Dec-01 20:32N 39°35' W 075°36'0 0.0
2016-Dec-01 19:32N 39°35' W 075°36'0 0.0
2016-Dec-01 18:32N 39°35' W 075°36'0 0.0
2016-Dec-01 17:32N 39°35' W 075°36'0 0.0
2016-Dec-01 16:32N 39°35' W 075°36'0 0.0
2016-Dec-01 15:32N 39°35' W 075°36'0 0.0
2016-Dec-01 14:32N 39°35' W 075°36'0 0.0
2016-Dec-01 13:32N 39°35' W 075°36'0 0.0
2016-Dec-01 12:32N 39°35' W 075°36'0 0.0
2016-Dec-01 11:32N 39°35' W 075°36'0 0.0
2016-Dec-01 10:32N 39°35' W 075°36'0 0.0
2016-Dec-01 09:32N 39°35' W 075°36'0 0.0
2016-Dec-01 08:33N 39°35' W 075°35'0 0.0
2016-Dec-01 07:33N 39°35' W 075°35'2 1.5
2016-Dec-01 06:33N 39°35' W 075°34'6 6.3
2016-Dec-01 05:33N 39°41' W 075°31'7 7.3
2016-Dec-01 04:33N 39°48' W 075°27'7 7.1
2016-Dec-01 03:33N 39°51' W 075°18'3 2.6
2016-Dec-01 02:33N 39°51' W 075°15'0 0.0
2016-Dec-01 01:32N 39°51' W 075°15'0 0.0
2016-Dec-01 00:33N 39°51' W 075°15'0 0.0
2016-Nov-30 23:32N 39°51' W 075°15'0 0.0
2016-Nov-30 22:32N 39°51' W 075°15'0 0.0
2016-Nov-30 21:33N 39°51' W 075°15'0 0.0
2016-Nov-30 20:32N 39°51' W 075°15'0 0.0
2016-Nov-30 19:32N 39°51' W 075°15'0 0.0
2016-Nov-30 18:32N 39°51' W 075°15'0 0.0
2016-Nov-30 17:32N 39°51' W 075°15'0 0.0
2016-Nov-30 16:29N 39°51' W 075°15'0 0.0
2016-Nov-30 15:32N 39°51' W 075°15'0 0.0
2016-Nov-30 14:32N 39°51' W 075°15'0 0.0
2016-Nov-30 13:32N 39°51' W 075°15'0 0.0
2016-Nov-30 12:32N 39°51' W 075°15'0 0.0
2016-Nov-30 11:32N 39°51' W 075°15'0 0.0
2016-Nov-30 10:32N 39°51' W 075°15'0 0.0
2016-Nov-30 09:32N 39°51' W 075°15'0 0.0
2016-Nov-30 06:26N 39°51' W 075°15'0 0.0
2016-Nov-30 05:32N 39°51' W 075°15'0 0.0
2016-Nov-30 04:32N 39°51' W 075°15'0 0.0
2016-Nov-30 03:32N 39°51' W 075°15'0 0.0
2016-Nov-30 02:32N 39°51' W 075°15'0 0.0
2016-Nov-30 01:32N 39°51' W 075°15'0 0.0
2016-Nov-30 00:23N 39°51' W 075°15'0 0.0
2016-Nov-29 23:32N 39°51' W 075°15'0 0.0
2016-Nov-29 22:32N 39°51' W 075°15'0 0.0
2016-Nov-29 21:32N 39°51' W 075°15'0 0.0
2016-Nov-29 20:33N 39°51' W 075°15'3 3.1
2016-Nov-29 19:33N 39°51' W 075°19'7 6.5
2016-Nov-29 18:33N 39°48' W 075°26'7 7.4
2016-Nov-29 17:33N 39°41' W 075°31'7 6.9
2016-Nov-29 16:33N 39°34' W 075°33'2 2.0
2016-Nov-29 15:32N 39°35' W 075°36'0 0.0
2016-Nov-29 14:32N 39°35' W 075°36'0 0.0
2016-Nov-29 13:31N 39°35' W 075°36'0 0.0
2016-Nov-29 12:32N 39°35' W 075°36'0 0.0
2016-Nov-29 11:31N 39°35' W 075°36'0 0.0
2016-Nov-29 10:31N 39°35' W 075°36'0 0.0
2016-Nov-29 09:32N 39°35' W 075°36'0 0.0
2016-Nov-29 08:32N 39°35' W 075°36'0 0.0
2016-Nov-29 07:32N 39°35' W 075°36'0 0.0
2016-Nov-29 06:32N 39°35' W 075°36'0 0.0
2016-Nov-29 05:31N 39°35' W 075°36'0 0.0
2016-Nov-29 04:31N 39°35' W 075°36'0 0.0
2016-Nov-29 03:31N 39°35' W 075°36'0 0.0
2016-Nov-29 02:31N 39°35' W 075°36'0 0.0
2016-Nov-29 01:31N 39°35' W 075°36'0 0.0
2016-Nov-29 00:31N 39°35' W 075°36'0 0.0
2016-Nov-28 23:31N 39°35' W 075°36'0 0.0
2016-Nov-28 22:31N 39°35' W 075°36'0 0.0
2016-Nov-28 21:31N 39°35' W 075°36'0 0.0
2016-Nov-28 20:31N 39°35' W 075°36'0 0.0
2016-Nov-28 19:31N 39°35' W 075°36'0 0.0
2016-Nov-28 18:31N 39°35' W 075°36'0 0.0
2016-Nov-28 17:31N 39°35' W 075°36'0 0.0
2016-Nov-28 16:31N 39°35' W 075°36'0 0.0
2016-Nov-28 15:31N 39°35' W 075°36'0 0.0
2016-Nov-28 14:31N 39°35' W 075°36'0 0.0
2016-Nov-28 13:31N 39°35' W 075°36'0 0.0
2016-Nov-28 12:31N 39°35' W 075°36'0 0.0
2016-Nov-28 11:31N 39°35' W 075°36'0 0.0
2016-Nov-28 10:31N 39°35' W 075°36'0 0.0
2016-Nov-28 09:31N 39°35' W 075°36'0 0.0
2016-Nov-28 08:33N 39°35' W 075°36'0 0.0
2016-Nov-28 07:33N 39°35' W 075°36'5 5.1
2016-Nov-28 06:33N 39°31' W 075°33'0 0.2
2016-Nov-28 05:31N 39°30' W 075°33'0 0.1
2016-Nov-28 04:31N 39°30' W 075°33'0 0.1
2016-Nov-28 03:31N 39°30' W 075°33'0 0.0
2016-Nov-28 02:31N 39°30' W 075°33'0 0.0
2016-Nov-28 01:31N 39°30' W 075°33'0 0.0
2016-Nov-28 00:31N 39°30' W 075°33'0 0.1
2016-Nov-27 23:28N 39°30' W 075°33'0 0.1
2016-Nov-27 22:31N 39°30' W 075°33'0 0.1
2016-Nov-27 21:31N 39°30' W 075°33'0 0.0
2016-Nov-27 20:31N 39°30' W 075°33'0 0.0
2016-Nov-27 19:31N 39°30' W 075°33'0 0.0
2016-Nov-27 18:31N 39°30' W 075°33'0 0.0
2016-Nov-27 17:31N 39°30' W 075°33'0 0.1
2016-Nov-27 16:31N 39°30' W 075°33'5 5.1
2016-Nov-27 15:33N 39°25' W 075°31'10 9.7
2016-Nov-27 14:33N 39°18' W 075°23'10 9.7
2016-Nov-27 13:33N 39°10' W 075°16'  

Dump ship's entire track history